createdAt,value
2023-03-05T00:01:55.632Z,24.25
2023-03-05T00:04:30.277Z,24.22
2023-03-05T00:07:12.637Z,24.19
2023-03-05T00:10:22.833Z,24.20
2023-03-05T00:13:04.756Z,24.08
2023-03-05T00:15:47.391Z,24.08
2023-03-05T00:21:43.339Z,24.01
2023-03-05T00:27:11.847Z,24.02
2023-03-05T00:29:56.192Z,23.98
2023-03-05T00:32:38.510Z,23.95
2023-03-05T00:36:37.744Z,23.98
2023-03-05T00:39:24.837Z,23.94
2023-03-05T00:45:24.455Z,23.99
2023-03-05T00:48:00.565Z,24.04
2023-03-05T00:51:08.831Z,24.06
2023-03-05T00:54:14.940Z,24.08
2023-03-05T00:56:46.944Z,24.16
2023-03-05T01:09:44.406Z,24.09
2023-03-05T01:12:32.983Z,24.04
2023-03-05T01:15:12.254Z,23.99
2023-03-05T01:18:09.117Z,24.04
2023-03-05T01:20:41.482Z,24.09
2023-03-05T01:23:16.232Z,24.10
2023-03-05T01:29:30.077Z,24.10
2023-03-05T01:35:23.829Z,24.09
2023-03-05T01:38:06.616Z,24.02
2023-03-05T01:43:42.837Z,23.96
2023-03-05T01:46:49.822Z,23.90
2023-03-05T01:49:29.942Z,23.90
2023-03-05T01:52:01.175Z,23.92
2023-03-05T01:55:05.508Z,23.96
2023-03-05T01:57:42.543Z,23.90
2023-03-05T02:00:24.141Z,23.90
2023-03-05T02:02:55.910Z,23.96
2023-03-05T02:05:34.188Z,23.90
2023-03-05T02:08:10.784Z,23.89
2023-03-05T02:10:51.233Z,23.89
2023-03-05T02:13:46.200Z,23.92
2023-03-05T02:16:19.482Z,23.79
2023-03-05T02:18:49.969Z,23.76
2023-03-05T02:21:31.768Z,23.76
2023-03-05T02:24:03.099Z,23.75
2023-03-05T02:26:37.329Z,23.74
2023-03-05T02:29:11.038Z,23.74
2023-03-05T02:31:42.084Z,23.67
2023-03-05T02:34:12.763Z,23.64
2023-03-05T02:36:43.102Z,23.62
2023-03-05T02:39:14.011Z,23.65
2023-03-05T02:41:44.511Z,23.64
2023-03-05T02:44:14.972Z,23.71
2023-03-05T02:46:45.691Z,23.64
2023-03-05T02:49:16.075Z,23.67
2023-03-05T02:51:46.758Z,23.71
2023-03-05T02:54:17.356Z,23.74
2023-03-05T02:56:49.159Z,23.75
2023-03-05T02:59:20.340Z,23.74
2023-03-05T03:01:54.177Z,23.75
2023-03-05T03:04:26.124Z,23.78
2023-03-05T03:06:57.180Z,23.76
2023-03-05T03:09:28.699Z,23.72
2023-03-05T03:11:59.107Z,23.72
2023-03-05T03:14:29.943Z,23.72
2023-03-05T03:17:05.388Z,23.72
2023-03-05T03:19:37.198Z,23.75
2023-03-05T03:22:09.535Z,23.82
2023-03-05T03:24:40.543Z,23.81
2023-03-05T03:27:12.722Z,23.81
2023-03-05T03:29:43.689Z,23.76
2023-03-05T03:32:17.142Z,23.84
2023-03-05T03:34:52.504Z,23.79
2023-03-05T03:37:22.776Z,23.85
2023-03-05T03:39:52.812Z,23.82
2023-03-05T03:42:26.378Z,23.84
2023-03-05T03:44:57.900Z,23.88
2023-03-05T03:47:28.029Z,23.84
2023-03-05T03:49:58.459Z,23.85
2023-03-05T03:52:28.835Z,23.84
2023-03-05T03:55:02.912Z,23.84
2023-03-05T03:57:35.590Z,23.82
2023-03-05T04:00:12.205Z,23.79
2023-03-05T04:02:42.866Z,23.74
2023-03-05T04:05:13.668Z,23.75
2023-03-05T04:07:43.677Z,23.75
2023-03-05T04:10:17.762Z,23.78
2023-03-05T04:12:48.956Z,23.78
2023-03-05T04:15:19.850Z,23.82
2023-03-05T04:17:50.646Z,23.82
2023-03-05T04:20:21.050Z,23.78
2023-03-05T04:22:51.257Z,23.78
2023-03-05T04:25:21.382Z,23.74
2023-03-05T04:27:53.863Z,23.74
2023-03-05T04:30:24.402Z,23.72
2023-03-05T04:32:55.614Z,23.69
2023-03-05T04:35:26.294Z,23.72
2023-03-05T04:37:57.266Z,23.69
2023-03-05T04:40:27.305Z,23.68
2023-03-05T04:42:58.211Z,23.65
2023-03-05T04:45:29.025Z,23.61
2023-03-05T04:48:00.843Z,23.59
2023-03-05T04:50:31.292Z,23.57
2023-03-05T04:53:02.807Z,23.59
2023-03-05T04:55:36.155Z,23.65
2023-03-05T04:58:06.454Z,23.58
2023-03-05T05:00:36.763Z,23.58
2023-03-05T05:03:07.115Z,23.62
2023-03-05T05:05:38.427Z,23.64
2023-03-05T05:08:10.217Z,23.61
2023-03-05T05:10:41.527Z,23.64
2023-03-05T05:13:11.968Z,23.64
2023-03-05T05:15:43.717Z,23.57
2023-03-05T05:18:14.887Z,23.55
2023-03-05T05:20:46.511Z,23.53
2023-03-05T05:23:17.814Z,23.53
2023-03-05T05:25:48.013Z,23.48
2023-03-05T05:28:18.072Z,23.55
2023-03-05T05:30:48.874Z,23.59
2023-03-05T05:33:19.117Z,23.57
2023-03-05T05:35:50.315Z,23.58
2023-03-05T05:38:21.211Z,23.58
2023-03-05T05:40:51.415Z,23.59
2023-03-05T05:43:22.194Z,23.62
2023-03-05T05:45:53.804Z,23.62
2023-03-05T05:48:24.175Z,23.58
2023-03-05T05:50:55.157Z,23.61
2023-03-05T05:53:27.465Z,23.59
2023-03-05T05:55:58.000Z,23.54
2023-03-05T05:58:28.421Z,23.55
2023-03-05T06:00:59.399Z,23.57
2023-03-05T06:03:29.833Z,23.54
2023-03-05T06:06:00.411Z,23.54
2023-03-05T06:08:31.096Z,23.55
2023-03-05T06:11:01.276Z,23.55
2023-03-05T06:13:31.553Z,23.54
2023-03-05T06:16:08.639Z,23.55
2023-03-05T06:18:40.210Z,23.54
2023-03-05T06:21:16.671Z,23.53
2023-03-05T06:23:48.473Z,23.57
2023-03-05T06:26:22.195Z,23.54
2023-03-05T06:28:54.376Z,23.55
2023-03-05T06:31:29.472Z,23.53
2023-03-05T06:34:05.254Z,23.51
2023-03-05T06:36:36.438Z,23.51
2023-03-05T06:39:07.754Z,23.53
2023-03-05T06:41:37.824Z,23.57
2023-03-05T06:44:09.173Z,23.57
2023-03-05T06:46:41.941Z,23.59
2023-03-05T06:49:13.841Z,23.61
2023-03-05T06:51:44.199Z,23.57
2023-03-05T06:54:17.151Z,23.61
2023-03-05T06:56:49.033Z,23.61
2023-03-05T06:59:20.775Z,23.62
2023-03-05T07:01:51.576Z,23.57
2023-03-05T07:04:25.271Z,23.61
2023-03-05T07:06:58.544Z,23.61
2023-03-05T07:09:28.853Z,23.62
2023-03-05T07:12:02.589Z,23.64
2023-03-05T07:14:37.954Z,23.68
2023-03-05T07:17:10.276Z,23.68
2023-03-05T07:19:40.666Z,23.67
2023-03-05T07:22:11.181Z,23.65
2023-03-05T07:24:42.576Z,23.67
2023-03-05T07:27:14.383Z,23.68
2023-03-05T07:29:45.935Z,23.68
2023-03-05T07:32:16.905Z,23.64
2023-03-05T07:34:51.023Z,23.67
2023-03-05T07:37:22.510Z,23.69
2023-03-05T07:39:52.972Z,23.72
2023-03-05T07:42:23.166Z,23.76
2023-03-05T07:45:01.099Z,23.71
2023-03-05T07:47:33.573Z,23.69
2023-03-05T07:50:05.042Z,23.69
2023-03-05T07:52:37.555Z,23.76
2023-03-05T07:55:08.081Z,23.79
2023-03-05T07:57:41.616Z,23.79
2023-03-05T08:00:13.916Z,23.82
2023-03-05T08:02:46.210Z,23.82
2023-03-05T08:05:17.930Z,23.82
2023-03-05T08:07:48.577Z,23.84
2023-03-05T08:10:21.368Z,23.82
2023-03-05T08:12:52.567Z,23.86
2023-03-05T08:15:23.710Z,23.86
2023-03-05T08:17:55.659Z,23.88
2023-03-05T08:20:26.838Z,23.92
2023-03-05T08:22:58.613Z,23.94
2023-03-05T08:25:29.719Z,23.95
2023-03-05T08:28:00.475Z,24.01
2023-03-05T08:30:31.629Z,23.99
2023-03-05T08:33:01.762Z,23.98
2023-03-05T08:35:31.791Z,23.94
2023-03-05T08:38:02.454Z,23.92
2023-03-05T08:40:33.419Z,23.84
2023-03-05T08:43:04.678Z,23.74
2023-03-05T08:45:35.168Z,23.59
2023-03-05T08:48:05.957Z,23.53
2023-03-05T08:50:39.215Z,23.21
2023-03-05T08:53:11.084Z,22.86
2023-03-05T08:55:44.096Z,22.66
2023-03-05T08:58:17.402Z,22.67
2023-03-05T09:00:48.339Z,22.87
2023-03-05T09:03:18.883Z,22.96
2023-03-05T09:05:49.858Z,23.06
2023-03-05T09:08:29.468Z,23.13
2023-03-05T09:11:05.520Z,23.23
2023-03-05T09:13:37.459Z,23.24
2023-03-05T09:16:17.332Z,23.27
2023-03-05T09:18:50.075Z,23.30
2023-03-05T09:21:22.081Z,23.31
2023-03-05T09:23:52.847Z,23.34
2023-03-05T09:26:22.967Z,23.40
2023-03-05T09:28:54.579Z,23.41
2023-03-05T09:31:26.347Z,23.43
2023-03-05T09:33:56.756Z,23.41
2023-03-05T09:36:29.949Z,23.35
2023-03-05T09:39:05.716Z,23.31
2023-03-05T09:42:01.664Z,23.31
2023-03-05T09:44:40.400Z,23.31
2023-03-05T09:47:32.198Z,23.31
2023-03-05T09:50:06.074Z,23.27
2023-03-05T09:53:07.663Z,23.34
2023-03-05T09:55:42.381Z,23.35
2023-03-05T09:58:41.700Z,23.37
2023-03-05T10:01:36.166Z,23.38
2023-03-05T10:04:16.416Z,23.38
2023-03-05T10:07:00.874Z,23.37
2023-03-05T10:09:49.039Z,23.41
2023-03-05T10:12:40.503Z,23.40
2023-03-05T10:15:21.766Z,23.37
2023-03-05T10:18:07.740Z,23.38
2023-03-05T10:21:10.878Z,23.40
2023-03-05T10:24:12.981Z,23.43
2023-03-05T10:26:51.180Z,23.41
2023-03-05T10:30:02.408Z,23.44
2023-03-05T10:32:49.800Z,23.44
2023-03-05T10:35:58.225Z,23.48
2023-03-05T10:38:36.563Z,23.53
2023-03-05T10:41:41.842Z,23.51
2023-03-05T10:44:34.831Z,23.48
2023-03-05T10:47:14.488Z,23.50
2023-03-05T10:49:53.845Z,23.51
2023-03-05T10:52:48.907Z,23.54
2023-03-05T10:55:25.889Z,23.53
2023-03-05T10:57:56.410Z,23.57
2023-03-05T11:00:34.409Z,23.55
2023-03-05T11:03:09.005Z,23.58
2023-03-05T11:05:49.547Z,23.61
2023-03-05T11:08:52.121Z,23.64
2023-03-05T11:11:26.493Z,23.71
2023-03-05T11:14:06.576Z,23.85
2023-03-05T11:16:54.386Z,24.02
2023-03-05T11:19:37.409Z,24.12
2023-03-05T11:22:25.290Z,24.29
2023-03-05T11:25:13.881Z,24.52
2023-03-05T11:28:31.945Z,25.27
2023-03-05T11:31:18.819Z,26.07
2023-03-05T11:34:04.443Z,26.58
2023-03-05T11:36:42.047Z,26.90
2023-03-05T11:39:19.575Z,26.77
2023-03-05T11:42:27.888Z,26.94
2023-03-05T11:44:59.454Z,27.09
2023-03-05T11:47:51.356Z,27.56
2023-03-05T11:50:27.951Z,27.62
2023-03-05T11:53:10.071Z,27.90
2023-03-05T11:55:44.039Z,27.93
2023-03-05T11:58:29.622Z,27.83
2023-03-05T12:01:01.159Z,28.23
2023-03-05T12:03:39.188Z,28.30
2023-03-05T12:06:28.074Z,28.48
2023-03-05T12:09:03.345Z,28.43
2023-03-05T12:11:37.312Z,28.71
2023-03-05T12:14:23.326Z,28.68
2023-03-05T12:17:12.726Z,29.01
2023-03-05T12:20:07.717Z,29.25
2023-03-05T12:22:44.600Z,29.19
2023-03-05T12:25:47.106Z,29.46
2023-03-05T12:28:39.221Z,29.11
2023-03-05T12:31:13.216Z,29.11
2023-03-05T12:33:45.229Z,28.99
2023-03-05T12:36:27.775Z,28.99
2023-03-05T12:39:01.122Z,29.20
2023-03-05T12:41:34.701Z,29.52
2023-03-05T12:44:07.884Z,29.87
2023-03-05T12:46:43.175Z,29.83
2023-03-05T12:49:25.607Z,29.98
2023-03-05T12:52:02.291Z,30.21
2023-03-05T12:54:42.084Z,30.82
2023-03-05T12:57:28.557Z,30.10
2023-03-05T13:00:25.615Z,30.10
2023-03-05T13:03:03.154Z,29.43
2023-03-05T13:05:39.509Z,29.69
2023-03-05T13:08:19.281Z,30.31
2023-03-05T13:11:22.324Z,30.51
2023-03-05T13:13:53.587Z,29.80
2023-03-05T13:16:39.405Z,30.52
2023-03-05T13:19:19.713Z,30.72
2023-03-05T13:22:10.585Z,30.58
2023-03-05T13:24:41.782Z,30.00
2023-03-05T13:27:41.168Z,29.29
2023-03-05T13:30:36.216Z,28.84
2023-03-05T13:33:09.169Z,28.48
2023-03-05T13:35:54.748Z,28.30
2023-03-05T13:38:45.094Z,28.07
2023-03-05T13:41:29.603Z,28.07
2023-03-05T13:44:04.698Z,28.14
2023-03-05T13:46:38.160Z,28.21
2023-03-05T13:49:31.969Z,27.99
2023-03-05T13:52:03.890Z,27.86
2023-03-05T13:54:42.865Z,27.82
2023-03-05T13:57:44.803Z,27.25
2023-03-05T14:00:56.615Z,26.60
2023-03-05T14:03:34.027Z,26.07
2023-03-05T14:06:23.227Z,26.00
2023-03-05T14:09:09.173Z,26.12
2023-03-05T14:11:45.589Z,26.00
2023-03-05T14:14:24.517Z,25.88
2023-03-05T14:17:35.091Z,25.82
2023-03-05T14:20:29.809Z,25.57
2023-03-05T14:23:07.739Z,25.78
2023-03-05T14:25:46.206Z,25.89
2023-03-05T14:28:30.000Z,25.75
2023-03-05T14:31:02.495Z,25.81
2023-03-05T14:33:38.001Z,25.72
2023-03-05T14:36:19.487Z,25.57
2023-03-05T14:38:52.050Z,25.55
2023-03-05T14:41:39.180Z,25.75
2023-03-05T14:44:18.943Z,25.78
2023-03-05T14:46:54.641Z,25.38
2023-03-05T14:49:26.404Z,25.32
2023-03-05T14:51:57.623Z,25.52
2023-03-05T14:54:30.031Z,25.90
2023-03-05T14:57:00.883Z,26.09
2023-03-05T14:59:32.205Z,25.71
2023-03-05T15:02:03.984Z,25.65
2023-03-05T15:04:36.971Z,26.03
2023-03-05T15:07:09.639Z,26.26
2023-03-05T15:09:40.166Z,26.48
2023-03-05T15:12:13.981Z,26.32
2023-03-05T15:14:45.830Z,26.27
2023-03-05T15:17:22.193Z,26.43
2023-03-05T15:19:53.693Z,26.67
2023-03-05T15:22:25.361Z,27.11
2023-03-05T15:24:56.488Z,27.43
2023-03-05T15:27:28.490Z,27.65
2023-03-05T15:30:04.180Z,28.03
2023-03-05T15:32:35.432Z,28.18
2023-03-05T15:35:06.840Z,28.55
2023-03-05T15:37:41.418Z,28.39
2023-03-05T15:40:16.249Z,28.23
2023-03-05T15:42:48.812Z,27.86
2023-03-05T15:45:20.444Z,27.45
2023-03-05T15:47:55.762Z,27.25
2023-03-05T15:50:29.100Z,27.01
2023-03-05T15:53:01.331Z,26.73
2023-03-05T15:55:32.540Z,26.67
2023-03-05T16:00:38.575Z,26.90
2023-03-05T16:03:10.027Z,27.38
2023-03-05T16:05:41.247Z,27.73
2023-03-05T16:08:13.162Z,27.39
2023-03-05T16:10:44.847Z,27.21
2023-03-05T16:13:21.678Z,27.04
2023-03-05T16:15:54.492Z,26.87
2023-03-05T16:18:27.326Z,26.74
2023-03-05T16:20:59.076Z,26.41
2023-03-05T16:23:33.278Z,26.22
2023-03-05T16:26:04.368Z,25.99
2023-03-05T16:28:35.382Z,25.82
2023-03-05T16:31:06.217Z,25.72
2023-03-05T16:33:38.458Z,25.59
2023-03-05T16:36:27.730Z,25.55
2023-03-05T16:39:02.002Z,25.34
2023-03-05T16:41:34.215Z,25.32
2023-03-05T16:44:07.020Z,25.21
2023-03-05T16:46:40.524Z,25.32
2023-03-05T16:49:11.304Z,25.78
2023-03-05T16:51:43.084Z,25.82
2023-03-05T16:54:16.945Z,25.76
2023-03-05T16:56:48.144Z,25.71
2023-03-05T16:59:20.269Z,25.62
2023-03-05T17:01:51.860Z,25.48
2023-03-05T17:04:22.156Z,25.88
2023-03-05T17:06:53.167Z,26.14
2023-03-05T17:09:26.956Z,26.09
2023-03-05T17:11:57.874Z,26.27
2023-03-05T17:14:29.012Z,26.80
2023-03-05T17:17:00.121Z,26.73
2023-03-05T17:19:31.963Z,26.76
2023-03-05T17:22:03.596Z,26.34
2023-03-05T17:24:36.109Z,26.09
2023-03-05T17:27:07.096Z,25.79
2023-03-05T17:29:38.291Z,25.78
2023-03-05T17:32:09.468Z,26.05
2023-03-05T17:34:39.900Z,26.24
2023-03-05T17:37:10.804Z,26.27
2023-03-05T17:39:42.515Z,26.24
2023-03-05T17:42:13.261Z,26.05
2023-03-05T17:44:43.735Z,25.81
2023-03-05T17:47:16.111Z,25.86
2023-03-05T17:49:47.368Z,25.86
2023-03-05T17:52:20.399Z,25.86
2023-03-05T17:54:52.549Z,25.76
2023-03-05T17:57:26.067Z,25.61
2023-03-05T17:59:57.710Z,25.34
2023-03-05T18:02:28.787Z,25.32
2023-03-05T18:05:00.752Z,25.41
2023-03-05T18:07:31.974Z,25.45
2023-03-05T18:10:02.507Z,25.53
2023-03-05T18:12:33.597Z,25.85
2023-03-05T18:15:05.775Z,26.14
2023-03-05T18:17:37.532Z,26.64
2023-03-05T18:20:10.442Z,26.43
2023-03-05T18:22:43.790Z,26.32
2023-03-05T18:25:14.192Z,26.24
2023-03-05T18:27:47.015Z,26.20
2023-03-05T18:30:20.769Z,25.96
2023-03-05T18:32:51.916Z,25.92
2023-03-05T18:35:22.799Z,26.12
2023-03-05T18:37:53.436Z,26.12
2023-03-05T18:40:26.573Z,26.51
2023-03-05T18:42:57.361Z,26.24
2023-03-05T18:45:27.374Z,26.44
2023-03-05T18:47:58.183Z,26.54
2023-03-05T18:50:29.667Z,26.77
2023-03-05T18:52:59.758Z,26.91
2023-03-05T18:55:33.259Z,26.81
2023-03-05T18:58:06.764Z,26.70
2023-03-05T19:00:37.468Z,27.08
2023-03-05T19:03:10.466Z,27.16
2023-03-05T19:05:43.112Z,27.28
2023-03-05T19:08:13.681Z,27.25
2023-03-05T19:10:44.448Z,27.39
2023-03-05T19:14:31.969Z,26.77
2023-03-05T19:17:01.926Z,26.27
2023-03-05T19:19:32.704Z,26.14
2023-03-05T19:22:06.163Z,26.03
2023-03-05T19:24:36.624Z,25.99
2023-03-05T19:27:12.500Z,25.95
2023-03-05T19:29:46.311Z,25.89
2023-03-05T19:32:26.467Z,25.65
2023-03-05T19:34:58.547Z,25.52
2023-03-05T19:37:28.689Z,25.34
2023-03-05T19:40:00.006Z,25.17
2023-03-05T19:42:30.227Z,24.94
2023-03-05T19:45:01.979Z,24.81
2023-03-05T19:47:39.371Z,24.80
2023-03-05T19:50:10.372Z,24.80
2023-03-05T19:52:42.066Z,24.84
2023-03-05T19:55:12.608Z,25.04
2023-03-05T19:57:43.342Z,25.03
2023-03-05T20:00:15.248Z,25.08
2023-03-05T20:02:45.430Z,24.98
2023-03-05T20:05:17.771Z,24.94
2023-03-05T20:07:48.008Z,24.98
2023-03-05T20:10:21.642Z,25.11
2023-03-05T20:12:53.098Z,25.48
2023-03-05T20:15:24.815Z,25.37
2023-03-05T20:17:55.333Z,25.24
2023-03-05T20:20:27.167Z,25.21
2023-03-05T20:22:58.252Z,25.12
2023-03-05T20:25:28.504Z,25.20
2023-03-05T20:27:58.559Z,25.28
2023-03-05T20:30:29.678Z,25.28
2023-03-05T20:33:00.498Z,25.34
2023-03-05T20:35:31.837Z,25.27
2023-03-05T20:38:32.857Z,25.20
2023-03-05T20:41:09.939Z,25.06
2023-03-05T20:43:46.726Z,24.86
2023-03-05T20:46:27.039Z,24.79
2023-03-05T20:49:01.363Z,24.80
2023-03-05T20:51:38.483Z,24.94
2023-03-05T20:54:15.777Z,25.07
2023-03-05T20:56:51.117Z,24.94
2023-03-05T20:59:26.325Z,24.87
2023-03-05T21:01:57.392Z,24.77
2023-03-05T21:04:28.455Z,24.66
2023-03-05T21:07:00.061Z,24.61
2023-03-05T21:09:30.750Z,24.19
2023-03-05T21:12:03.761Z,23.78
2023-03-05T21:14:45.081Z,23.45
2023-03-05T21:17:25.096Z,23.47
2023-03-05T21:20:01.719Z,23.41
2023-03-05T21:22:42.297Z,23.65
2023-03-05T21:25:24.695Z,23.58
2023-03-05T21:28:13.344Z,23.67
2023-03-05T21:30:58.736Z,23.74
2023-03-05T21:33:36.843Z,23.95
2023-03-05T21:36:17.505Z,24.05
2023-03-05T21:38:52.532Z,24.08
2023-03-05T21:41:30.428Z,24.19
2023-03-05T21:44:20.948Z,24.19
2023-03-05T21:46:52.492Z,24.19
2023-03-05T21:49:23.438Z,24.22
2023-03-05T21:52:14.879Z,24.28
2023-03-05T21:54:47.157Z,24.28
2023-03-05T21:57:20.717Z,24.09
2023-03-05T21:59:52.250Z,23.98
2023-03-05T22:02:23.717Z,23.92
2023-03-05T22:04:54.317Z,23.88
2023-03-05T22:07:27.059Z,23.84
2023-03-05T22:10:01.012Z,23.89
2023-03-05T22:13:12.851Z,24.04
2023-03-05T22:15:56.443Z,23.99
2023-03-05T22:18:31.642Z,23.96
2023-03-05T22:21:06.654Z,23.94
2023-03-05T22:23:37.892Z,24.29
2023-03-05T22:26:18.000Z,24.43
2023-03-05T22:28:49.941Z,24.01
2023-03-05T22:31:27.152Z,23.69
2023-03-05T22:34:00.728Z,23.51
2023-03-05T22:36:41.944Z,23.44
2023-03-05T22:39:26.960Z,23.41
2023-03-05T22:42:10.540Z,23.44
2023-03-05T22:44:58.240Z,23.74
2023-03-05T22:47:35.621Z,23.89
2023-03-05T22:50:09.332Z,23.98
2023-03-05T22:53:13.060Z,24.09
2023-03-05T22:59:21.602Z,24.23
2023-03-05T23:02:11.941Z,24.18
2023-03-05T23:05:08.594Z,23.55
2023-03-05T23:07:47.346Z,23.54
2023-03-05T23:10:25.620Z,23.54
2023-03-05T23:13:21.470Z,23.61
2023-03-05T23:16:32.950Z,23.74
2023-03-05T23:19:35.532Z,23.85
2023-03-05T23:22:19.038Z,23.89
2023-03-05T23:24:59.968Z,24.05
2023-03-05T23:27:47.734Z,23.74
2023-03-05T23:30:55.645Z,23.55
2023-03-05T23:33:31.556Z,23.57
2023-03-05T23:38:54.256Z,23.57
2023-03-05T23:41:37.216Z,23.59
2023-03-05T23:44:33.139Z,23.58
2023-03-05T23:47:21.501Z,23.67
2023-03-05T23:50:05.383Z,23.81
2023-03-05T23:53:07.479Z,23.96
2023-03-05T23:56:24.371Z,24.08
2023-03-05T23:58:58.727Z,24.02
